createdAt,value
2023-02-08T00:00:45.144Z,34.57
2023-02-08T00:03:12.514Z,36.50
2023-02-08T00:05:39.979Z,30.63
2023-02-08T00:08:07.671Z,35.07
2023-02-08T00:10:35.593Z,34.83
2023-02-08T00:13:03.056Z,37.83
2023-02-08T00:15:30.103Z,34.50
2023-02-08T00:17:57.079Z,36.07
2023-02-08T00:20:24.077Z,37.33
2023-02-08T00:22:52.568Z,38.20
2023-02-08T00:25:20.891Z,38.50
2023-02-08T00:27:48.057Z,35.90
2023-02-08T00:30:15.087Z,31.13
2023-02-08T00:32:42.066Z,37.03
2023-02-08T00:35:09.025Z,34.03
2023-02-08T00:37:36.015Z,38.93
2023-02-08T00:40:05.822Z,35.13
2023-02-08T00:42:33.439Z,35.60
2023-02-08T00:45:00.856Z,36.83
2023-02-08T00:47:28.039Z,38.70
2023-02-08T00:49:55.044Z,32.70
2023-02-08T00:52:22.550Z,31.93
2023-02-08T00:54:49.518Z,33.53
2023-02-08T00:57:16.490Z,35.37
2023-02-08T00:59:43.471Z,35.00
2023-02-08T01:02:10.848Z,32.43
2023-02-08T01:04:38.435Z,33.87
2023-02-08T01:07:07.501Z,26.77
2023-02-08T01:09:34.657Z,31.80
2023-02-08T01:12:01.923Z,30.00
2023-02-08T01:14:29.019Z,30.77
2023-02-08T01:16:56.079Z,29.03
2023-02-08T01:19:23.813Z,31.23
2023-02-08T01:21:50.819Z,31.03
2023-02-08T01:24:17.880Z,31.00
2023-02-08T01:26:44.842Z,27.20
2023-02-08T01:29:12.215Z,31.30
2023-02-08T01:31:41.726Z,28.77
2023-02-08T01:34:09.554Z,23.03
2023-02-08T01:36:37.394Z,29.80
2023-02-08T01:39:06.058Z,29.67
2023-02-08T01:41:35.677Z,26.50
2023-02-08T01:44:11.789Z,28.77
2023-02-08T01:46:47.294Z,27.33
2023-02-08T01:49:14.227Z,28.30
2023-02-08T01:51:50.132Z,30.03
2023-02-08T01:54:19.671Z,26.30
2023-02-08T01:56:47.986Z,42.83
2023-02-08T01:59:23.432Z,27.70
2023-02-08T02:01:52.580Z,24.07
2023-02-08T02:04:21.095Z,28.77
2023-02-08T02:06:56.678Z,26.77
2023-02-08T02:09:52.540Z,30.60
2023-02-08T02:12:20.379Z,25.73
2023-02-08T02:14:47.805Z,25.57
2023-02-08T02:17:16.765Z,30.27
2023-02-08T02:19:49.507Z,27.27
2023-02-08T02:22:31.437Z,31.23
2023-02-08T02:25:40.528Z,25.17
2023-02-08T02:28:39.482Z,27.60
2023-02-08T02:31:12.444Z,28.50
2023-02-08T02:33:58.964Z,30.23
2023-02-08T02:36:50.573Z,24.20
2023-02-08T02:39:41.344Z,27.83
2023-02-08T02:43:09.955Z,22.80
2023-02-08T02:46:00.570Z,26.73
2023-02-08T02:48:38.383Z,30.53
2023-02-08T02:51:20.358Z,32.17
2023-02-08T02:54:19.948Z,30.73
2023-02-08T02:56:50.925Z,29.90
2023-02-08T02:59:19.683Z,30.13
2023-02-08T03:01:47.124Z,29.77
2023-02-08T03:04:40.124Z,26.37
2023-02-08T03:07:16.176Z,25.53
2023-02-08T03:10:24.913Z,32.70
2023-02-08T03:12:51.891Z,28.20
2023-02-08T03:15:56.332Z,27.70
2023-02-08T03:18:44.149Z,26.00
2023-02-08T03:21:29.910Z,26.80
2023-02-08T03:24:18.588Z,23.93
2023-02-08T03:27:04.961Z,31.83
2023-02-08T03:30:03.320Z,29.30
2023-02-08T03:32:42.305Z,30.30
2023-02-08T03:35:27.564Z,31.83
2023-02-08T03:37:56.292Z,28.43
2023-02-08T03:40:35.511Z,32.83
2023-02-08T03:43:10.249Z,28.40
2023-02-08T03:45:43.524Z,23.47
2023-02-08T03:48:13.975Z,27.87
2023-02-08T03:50:44.055Z,30.50
2023-02-08T03:53:11.312Z,31.40
2023-02-08T03:55:40.365Z,27.83
2023-02-08T03:58:17.247Z,33.77
2023-02-08T04:00:52.062Z,26.67
2023-02-08T04:03:25.963Z,28.43
2023-02-08T04:05:53.288Z,29.77
2023-02-08T04:08:21.958Z,29.33
2023-02-08T04:10:49.374Z,32.00
2023-02-08T04:13:16.388Z,25.47
2023-02-08T04:15:44.334Z,28.03
2023-02-08T04:18:11.498Z,29.10
2023-02-08T04:20:38.766Z,26.73
2023-02-08T04:23:05.918Z,25.37
2023-02-08T04:25:32.870Z,29.80
2023-02-08T04:27:59.950Z,25.63
2023-02-08T04:30:26.960Z,25.60
2023-02-08T04:32:53.895Z,25.40
2023-02-08T04:35:20.823Z,28.17
2023-02-08T04:37:47.826Z,27.27
2023-02-08T04:40:14.789Z,22.50
2023-02-08T04:42:41.786Z,26.90
2023-02-08T04:45:09.478Z,28.23
2023-02-08T04:47:36.437Z,28.47
2023-02-08T04:50:04.028Z,23.63
2023-02-08T04:52:31.062Z,29.00
2023-02-08T04:54:58.020Z,28.83
2023-02-08T04:57:25.002Z,24.73
2023-02-08T04:59:51.891Z,24.17
2023-02-08T05:02:18.825Z,25.53
2023-02-08T05:04:45.719Z,25.07
2023-02-08T05:07:12.665Z,23.97
2023-02-08T05:09:39.577Z,29.97
2023-02-08T05:12:06.748Z,29.97
2023-02-08T05:14:33.661Z,27.27
2023-02-08T05:17:00.588Z,26.90
2023-02-08T05:19:27.663Z,30.50
2023-02-08T05:21:54.605Z,22.80
2023-02-08T05:24:21.593Z,33.57
2023-02-08T05:26:48.540Z,28.70
2023-02-08T05:29:15.462Z,29.53
2023-02-08T05:31:42.490Z,31.60
2023-02-08T05:34:09.594Z,27.17
2023-02-08T05:36:36.592Z,27.23
2023-02-08T05:39:03.880Z,23.97
2023-02-08T05:41:30.916Z,31.20
2023-02-08T05:43:57.909Z,27.63
2023-02-08T05:46:25.044Z,27.97
2023-02-08T05:48:52.043Z,31.33
2023-02-08T05:51:20.829Z,26.13
2023-02-08T05:53:47.797Z,27.83
2023-02-08T05:56:14.680Z,29.20
2023-02-08T05:58:41.647Z,29.63
2023-02-08T06:01:13.274Z,24.37
2023-02-08T06:03:41.102Z,37.87
2023-02-08T06:06:11.274Z,29.60
2023-02-08T06:08:39.148Z,29.67
2023-02-08T06:11:07.056Z,29.93
2023-02-08T06:13:34.339Z,34.53
2023-02-08T06:16:01.283Z,35.37
2023-02-08T06:18:28.418Z,31.30
2023-02-08T06:20:55.443Z,29.90
2023-02-08T06:23:23.336Z,35.73
2023-02-08T06:25:51.139Z,30.17
2023-02-08T06:28:18.229Z,30.73
2023-02-08T06:30:45.347Z,33.50
2023-02-08T06:33:14.480Z,34.80
2023-02-08T06:35:48.525Z,27.80
2023-02-08T06:38:15.607Z,29.43
2023-02-08T06:40:43.051Z,34.03
2023-02-08T06:43:10.094Z,34.60
2023-02-08T06:45:37.072Z,32.60
2023-02-08T06:48:04.270Z,40.07
2023-02-08T06:50:31.619Z,31.13
2023-02-08T06:52:58.586Z,30.00
2023-02-08T06:55:25.546Z,35.43
2023-02-08T06:57:55.756Z,28.80
2023-02-08T07:00:22.924Z,32.70
2023-02-08T07:02:49.939Z,33.17
2023-02-08T07:05:16.959Z,35.07
2023-02-08T07:07:43.958Z,33.20
2023-02-08T07:10:10.926Z,41.33
2023-02-08T07:12:37.974Z,36.90
2023-02-08T07:15:05.102Z,31.47
2023-02-08T07:17:32.052Z,33.60
2023-02-08T07:19:58.997Z,32.73
2023-02-08T07:22:25.944Z,26.27
2023-02-08T07:24:52.954Z,29.47
2023-02-08T07:27:20.019Z,29.83
2023-02-08T07:29:47.133Z,30.57
2023-02-08T07:32:14.195Z,34.47
2023-02-08T07:34:41.183Z,39.60
2023-02-08T07:37:08.518Z,32.00
2023-02-08T07:39:35.463Z,32.43
2023-02-08T07:42:03.329Z,35.30
2023-02-08T07:44:37.865Z,33.63
2023-02-08T07:47:06.232Z,25.73
2023-02-08T07:49:33.696Z,31.30
2023-02-08T07:52:01.639Z,30.03
2023-02-08T08:02:44.558Z,28.43
2023-02-08T08:05:11.797Z,33.27
2023-02-08T08:07:39.121Z,34.40
2023-02-08T08:10:06.455Z,27.43
2023-02-08T08:12:33.450Z,34.13
2023-02-08T08:15:00.457Z,29.87
2023-02-08T08:17:29.637Z,26.60
2023-02-08T08:19:57.030Z,26.00
2023-02-08T08:22:24.024Z,29.90
2023-02-08T08:24:50.970Z,31.20
2023-02-08T08:27:17.876Z,25.97
2023-02-08T08:29:44.955Z,26.40
2023-02-08T08:32:12.034Z,31.80
2023-02-08T08:34:39.133Z,24.37
2023-02-08T08:37:06.193Z,32.03
2023-02-08T08:39:33.539Z,30.93
2023-02-08T08:42:01.518Z,26.30
2023-02-08T08:44:28.537Z,30.13
2023-02-08T08:47:00.026Z,27.70
2023-02-08T08:49:28.398Z,33.70
2023-02-08T08:51:56.044Z,28.30
2023-02-08T08:54:23.310Z,28.67
2023-02-08T08:56:50.271Z,27.00
2023-02-08T08:59:17.323Z,24.43
2023-02-08T09:01:44.285Z,24.80
2023-02-08T09:04:11.968Z,28.93
2023-02-08T09:06:39.138Z,26.13
2023-02-08T09:09:06.335Z,29.10
2023-02-08T09:11:33.517Z,26.23
2023-02-08T09:14:05.010Z,28.83
2023-02-08T09:16:33.252Z,28.43
2023-02-08T09:19:05.625Z,23.47
2023-02-08T09:21:33.031Z,25.43
2023-02-08T09:24:01.996Z,25.33
2023-02-08T09:26:29.339Z,29.67
2023-02-08T09:28:56.805Z,25.90
2023-02-08T09:31:29.453Z,28.43
2023-02-08T09:33:59.535Z,25.33
2023-02-08T09:36:29.536Z,29.63
2023-02-08T09:39:00.846Z,31.53
2023-02-08T09:41:40.040Z,29.37
2023-02-08T09:44:37.368Z,27.80
2023-02-08T09:47:25.108Z,26.87
2023-02-08T09:49:58.876Z,24.00
2023-02-08T09:52:50.628Z,25.40
2023-02-08T09:55:21.757Z,29.70
2023-02-08T09:57:51.319Z,24.13
2023-02-08T10:00:24.983Z,28.57
2023-02-08T10:02:54.962Z,28.47
2023-02-08T10:05:25.018Z,31.00
2023-02-08T10:07:52.159Z,24.47
2023-02-08T10:10:33.364Z,23.87
2023-02-08T10:13:09.687Z,25.60
2023-02-08T10:15:55.575Z,27.50
2023-02-08T10:18:47.181Z,28.90
2023-02-08T10:21:35.399Z,23.43
2023-02-08T10:24:11.258Z,26.63
2023-02-08T10:27:15.065Z,25.53
2023-02-08T10:29:57.128Z,23.93
2023-02-08T10:32:24.114Z,29.47
2023-02-08T10:35:02.556Z,26.10
2023-02-08T10:37:35.019Z,28.10
2023-02-08T10:40:35.891Z,25.67
2023-02-08T10:43:31.089Z,24.10
2023-02-08T10:46:18.939Z,23.83
2023-02-08T10:49:03.622Z,22.73
2023-02-08T10:51:31.338Z,28.27
2023-02-08T10:53:58.760Z,25.50
2023-02-08T10:56:44.111Z,28.93
2023-02-08T10:59:24.227Z,23.57
2023-02-08T11:01:53.077Z,23.90
2023-02-08T11:04:20.984Z,24.50
2023-02-08T11:06:49.475Z,28.20
2023-02-08T11:09:23.878Z,24.37
2023-02-08T11:11:52.806Z,28.13
2023-02-08T11:14:30.378Z,23.97
2023-02-08T11:17:05.063Z,21.03
2023-02-08T11:19:32.512Z,24.80
2023-02-08T11:22:01.967Z,21.73
2023-02-08T11:24:43.256Z,24.13
2023-02-08T11:27:28.402Z,24.17
2023-02-08T11:30:13.640Z,22.40
2023-02-08T11:32:42.079Z,25.43
2023-02-08T11:35:22.851Z,24.67
2023-02-08T11:37:54.545Z,23.30
2023-02-08T11:40:25.532Z,25.93
2023-02-08T11:42:53.205Z,22.60
2023-02-08T11:45:27.266Z,22.40
2023-02-08T11:47:54.605Z,21.87
2023-02-08T11:50:31.849Z,21.93
2023-02-08T11:53:01.871Z,22.90
2023-02-08T11:55:32.083Z,30.00
2023-02-08T11:57:59.043Z,19.40
2023-02-08T12:00:29.476Z,20.00
2023-02-08T12:03:02.143Z,23.63
2023-02-08T12:05:45.263Z,22.57
2023-02-08T12:08:27.364Z,29.13
2023-02-08T12:11:08.087Z,19.23
2023-02-08T12:13:51.266Z,14.47
2023-02-08T12:16:55.187Z,16.63
2023-02-08T12:19:51.127Z,16.10
2023-02-08T12:22:25.642Z,15.00
2023-02-08T12:25:14.263Z,18.57
2023-02-08T12:28:07.682Z,15.43
2023-02-08T12:30:41.276Z,16.43
2023-02-08T12:33:23.320Z,18.33
2023-02-08T12:36:18.270Z,11.87
2023-02-08T12:39:34.612Z,15.90
2023-02-08T12:42:29.541Z,14.57
2023-02-08T12:45:16.604Z,14.67
2023-02-08T12:48:11.667Z,20.63
2023-02-08T12:50:59.054Z,17.17
2023-02-08T12:53:52.002Z,20.77
2023-02-08T12:56:24.572Z,15.17
2023-02-08T12:59:01.919Z,19.17
2023-02-08T13:01:42.905Z,21.37
2023-02-08T13:04:18.522Z,21.13
2023-02-08T13:06:57.088Z,17.77
2023-02-08T13:09:40.918Z,15.57
2023-02-08T13:12:43.850Z,15.53
2023-02-08T13:15:30.475Z,17.57
2023-02-08T13:18:20.486Z,14.40
2023-02-08T13:20:47.863Z,15.20
2023-02-08T13:23:50.675Z,15.53
2023-02-08T13:26:24.596Z,15.73
2023-02-08T13:28:53.646Z,13.60
2023-02-08T13:31:28.200Z,19.50
2023-02-08T13:34:24.385Z,13.50
2023-02-08T13:36:56.014Z,17.30
2023-02-08T13:39:44.649Z,15.43
2023-02-08T13:42:29.104Z,14.63
2023-02-08T13:44:58.006Z,14.40
2023-02-08T13:47:59.832Z,10.93
2023-02-08T13:50:41.592Z,16.57
2023-02-08T13:53:09.850Z,17.43
2023-02-08T13:55:53.551Z,14.03
2023-02-08T13:58:46.349Z,15.27
2023-02-08T14:01:28.807Z,17.03
2023-02-08T14:04:07.842Z,13.40
2023-02-08T14:06:57.108Z,11.10
2023-02-08T14:09:42.717Z,11.70
2023-02-08T14:12:44.972Z,15.43
2023-02-08T14:15:14.755Z,13.73
2023-02-08T14:17:47.597Z,16.53
2023-02-08T14:20:25.819Z,16.27
2023-02-08T14:22:55.700Z,15.70
2023-02-08T14:25:43.423Z,17.47
2023-02-08T14:28:27.238Z,19.83
2023-02-08T14:30:58.101Z,14.00
2023-02-08T14:33:38.612Z,17.40
2023-02-08T14:36:19.520Z,17.60
2023-02-08T14:39:27.003Z,14.63
2023-02-08T14:42:05.485Z,16.73
2023-02-08T14:44:38.270Z,17.30
2023-02-08T14:47:24.098Z,15.00
2023-02-08T14:50:04.948Z,16.57
2023-02-08T14:52:35.516Z,14.17
2023-02-08T14:55:06.519Z,16.13
2023-02-08T14:57:36.853Z,13.93
2023-02-08T15:00:17.389Z,15.73
2023-02-08T15:02:46.341Z,13.80
2023-02-08T15:05:28.202Z,15.30
2023-02-08T15:08:00.329Z,14.83
2023-02-08T15:10:30.570Z,15.20
2023-02-08T15:13:00.792Z,15.63
2023-02-08T15:15:42.840Z,19.27
2023-02-08T15:18:30.273Z,16.40
2023-02-08T15:21:18.008Z,18.67
2023-02-08T15:23:59.624Z,15.77
2023-02-08T15:26:27.725Z,18.20
2023-02-08T15:28:55.711Z,15.60
2023-02-08T15:31:28.622Z,16.23
2023-02-08T15:33:55.911Z,13.37
2023-02-08T15:36:28.484Z,13.30
2023-02-08T15:38:59.102Z,14.30
2023-02-08T15:41:29.110Z,13.53
2023-02-08T15:44:14.089Z,15.83
2023-02-08T15:46:43.944Z,17.70
2023-02-08T15:49:15.699Z,15.93
2023-02-08T15:51:45.457Z,17.73
2023-02-08T15:54:19.363Z,16.10
2023-02-08T15:57:30.016Z,17.20
2023-02-08T15:59:57.460Z,15.00
2023-02-08T16:02:33.372Z,20.93
2023-02-08T16:05:02.892Z,17.23
2023-02-08T16:07:37.296Z,16.00
2023-02-08T16:10:06.423Z,15.10
2023-02-08T16:12:34.171Z,18.17
2023-02-08T16:15:01.218Z,18.60
2023-02-08T16:17:38.635Z,17.57
2023-02-08T16:20:34.391Z,19.47
2023-02-08T16:23:25.227Z,18.27
2023-02-08T16:25:52.433Z,17.73
2023-02-08T16:28:26.574Z,18.23
2023-02-08T16:30:59.172Z,18.10
2023-02-08T16:33:27.001Z,18.67
2023-02-08T16:36:01.689Z,21.10
2023-02-08T16:38:34.208Z,20.63
2023-02-08T16:41:12.293Z,19.13
2023-02-08T16:43:46.409Z,22.83
2023-02-08T16:46:19.900Z,19.67
2023-02-08T16:48:57.181Z,18.83
2023-02-08T16:51:27.023Z,17.23
2023-02-08T16:54:02.540Z,18.90
2023-02-08T16:56:29.709Z,23.37
2023-02-08T16:58:56.652Z,16.67
2023-02-08T17:01:26.992Z,18.30
2023-02-08T17:03:54.279Z,18.73
2023-02-08T17:06:34.414Z,22.33
2023-02-08T17:09:04.052Z,18.17
2023-02-08T17:11:32.042Z,22.57
2023-02-08T17:13:59.154Z,19.63
2023-02-08T17:16:28.818Z,18.97
2023-02-08T17:18:57.300Z,20.27
2023-02-08T17:21:24.349Z,18.37
2023-02-08T17:23:51.764Z,21.90
2023-02-08T17:26:32.391Z,20.13
2023-02-08T17:29:00.350Z,23.33
2023-02-08T17:31:29.660Z,20.07
2023-02-08T17:34:04.182Z,22.00
2023-02-08T17:36:36.630Z,16.93
2023-02-08T17:39:05.562Z,18.20
2023-02-08T17:41:32.868Z,19.50
2023-02-08T17:44:00.021Z,17.50
2023-02-08T17:46:30.776Z,16.03
2023-02-08T17:49:01.512Z,23.77
2023-02-08T17:51:28.779Z,28.63
2023-02-08T17:53:56.050Z,16.60
2023-02-08T17:56:28.603Z,17.07
2023-02-08T17:58:56.105Z,17.33
2023-02-08T18:01:25.597Z,16.83
2023-02-08T18:03:53.238Z,20.83
2023-02-08T18:06:21.152Z,23.03
2023-02-08T18:08:48.216Z,17.97
2023-02-08T18:11:20.261Z,16.87
2023-02-08T18:13:48.978Z,20.33
2023-02-08T18:16:24.778Z,20.90
2023-02-08T18:18:54.053Z,24.20
2023-02-08T18:21:22.728Z,22.97
2023-02-08T18:23:50.003Z,15.37
2023-02-08T18:26:19.959Z,17.23
2023-02-08T18:28:47.675Z,19.53
2023-02-08T18:31:19.885Z,19.83
2023-02-08T18:33:48.630Z,18.00
2023-02-08T18:36:16.294Z,20.33
2023-02-08T18:38:48.186Z,24.97
2023-02-08T18:41:21.880Z,21.53
2023-02-08T18:43:50.108Z,17.60
2023-02-08T18:46:20.477Z,21.33
2023-02-08T18:48:49.297Z,22.70
2023-02-08T18:51:19.714Z,18.60
2023-02-08T18:53:52.384Z,18.03
2023-02-08T18:56:24.226Z,16.77
2023-02-08T18:58:52.889Z,16.13
2023-02-08T19:01:23.381Z,23.07
2023-02-08T19:03:51.933Z,22.20
2023-02-08T19:06:22.609Z,25.77
2023-02-08T19:08:53.871Z,19.43
2023-02-08T19:11:29.834Z,19.87
2023-02-08T19:13:59.014Z,18.07
2023-02-08T19:16:27.698Z,20.70
2023-02-08T19:18:56.563Z,17.33
2023-02-08T19:21:23.873Z,22.73
2023-02-08T19:23:52.913Z,19.17
2023-02-08T19:26:25.325Z,18.90
2023-02-08T19:28:54.014Z,23.53
2023-02-08T19:31:23.125Z,18.83
2023-02-08T19:33:58.639Z,21.57
2023-02-08T19:36:35.229Z,22.83
2023-02-08T19:39:03.323Z,18.23
2023-02-08T19:41:39.030Z,19.77
2023-02-08T19:44:08.141Z,21.27
2023-02-08T19:46:38.824Z,19.13
2023-02-08T19:49:07.259Z,17.17
2023-02-08T19:51:37.137Z,17.30
2023-02-08T19:54:07.308Z,21.83
2023-02-08T19:56:34.764Z,14.97
2023-02-08T19:59:04.223Z,17.60
2023-02-08T20:01:33.150Z,17.83
2023-02-08T20:04:01.686Z,15.20
2023-02-08T20:06:33.940Z,16.83
2023-02-08T20:09:01.663Z,17.53
2023-02-08T20:11:31.404Z,20.20
2023-02-08T20:14:00.395Z,16.30
2023-02-08T20:16:31.427Z,23.40
2023-02-08T20:18:59.254Z,16.87
2023-02-08T20:21:27.068Z,17.47
2023-02-08T20:23:54.437Z,21.10
2023-02-08T20:26:26.731Z,24.03
2023-02-08T20:28:56.492Z,13.70
2023-02-08T20:31:24.870Z,15.27
2023-02-08T20:33:52.473Z,16.77
2023-02-08T20:36:25.717Z,17.30
2023-02-08T20:38:55.165Z,14.77
2023-02-08T20:41:24.141Z,14.97
2023-02-08T20:43:51.993Z,15.63
2023-02-08T20:46:22.278Z,21.03
2023-02-08T20:48:50.418Z,16.40
2023-02-08T20:51:19.735Z,16.53
2023-02-08T20:53:47.969Z,15.87
2023-02-08T20:56:24.698Z,17.57
2023-02-08T20:58:51.854Z,15.63
2023-02-08T21:01:24.864Z,18.13
2023-02-08T21:03:56.564Z,18.20
2023-02-08T21:06:26.604Z,13.57
2023-02-08T21:08:55.399Z,19.77
2023-02-08T21:11:24.504Z,12.97
2023-02-08T21:13:51.712Z,14.03
2023-02-08T21:16:18.959Z,16.30
2023-02-08T21:18:47.149Z,13.93
2023-02-08T21:21:15.396Z,16.80
2023-02-08T21:23:43.264Z,14.03
2023-02-08T21:26:13.196Z,17.87
2023-02-08T21:28:40.634Z,16.90
2023-02-08T21:31:10.946Z,13.90
2023-02-08T21:33:38.019Z,13.70
2023-02-08T21:36:10.325Z,13.53
2023-02-08T21:38:37.823Z,19.97
2023-02-08T21:41:16.534Z,15.53
2023-02-08T21:43:43.604Z,12.97
2023-02-08T21:46:10.690Z,12.23
2023-02-08T21:48:56.810Z,16.13
2023-02-08T21:51:43.773Z,14.33
2023-02-08T21:54:31.721Z,14.10
2023-02-08T21:56:59.937Z,13.30
2023-02-08T21:59:27.419Z,12.83
2023-02-08T22:01:54.715Z,13.27
2023-02-08T22:04:21.990Z,13.17
2023-02-08T22:06:49.256Z,12.67
2023-02-08T22:09:17.242Z,14.20
2023-02-08T22:11:44.393Z,10.60
2023-02-08T22:14:12.447Z,14.80
2023-02-08T22:16:40.294Z,13.07
2023-02-08T22:19:07.917Z,13.77
2023-02-08T22:21:35.010Z,18.60
2023-02-08T22:24:02.163Z,11.23
2023-02-08T22:26:29.323Z,12.17
2023-02-08T22:28:56.351Z,14.00
2023-02-08T22:31:23.674Z,13.37
2023-02-08T22:33:53.444Z,18.63
2023-02-08T22:36:20.815Z,10.43
2023-02-08T22:38:47.867Z,15.53
2023-02-08T22:41:16.563Z,11.50
2023-02-08T22:43:43.880Z,11.60
2023-02-08T22:46:11.386Z,10.70
2023-02-08T22:48:38.460Z,14.77
2023-02-08T22:51:11.376Z,11.43
2023-02-08T22:53:38.584Z,13.20
2023-02-08T22:56:05.648Z,11.83
2023-02-08T22:58:33.151Z,15.70
2023-02-08T23:01:00.104Z,11.57
2023-02-08T23:03:27.579Z,11.40
2023-02-08T23:05:55.262Z,13.93
2023-02-08T23:08:22.890Z,10.03
2023-02-08T23:10:50.055Z,12.77
2023-02-08T23:13:17.342Z,10.70
2023-02-08T23:15:45.164Z,10.77
2023-02-08T23:18:12.656Z,12.40
2023-02-08T23:20:40.984Z,12.40
2023-02-08T23:23:08.666Z,11.23
2023-02-08T23:25:39.837Z,13.47
2023-02-08T23:28:08.966Z,10.50
2023-02-08T23:30:42.588Z,12.43
2023-02-08T23:33:09.908Z,10.97
2023-02-08T23:35:41.220Z,11.87
2023-02-08T23:38:08.980Z,10.07
2023-02-08T23:40:36.011Z,10.20
2023-02-08T23:43:03.840Z,13.20
2023-02-08T23:45:31.250Z,10.07
2023-02-08T23:47:58.691Z,10.33
2023-02-08T23:50:26.405Z,9.03
2023-02-08T23:52:53.460Z,9.77
2023-02-08T23:55:20.440Z,10.77
2023-02-08T23:57:47.450Z,10.47
